CheckWX is a tool to help pilots better visualize weather data.  It is not intended as a substitute for an official pre-flight weather briefing.

14:30:11 UTC

KGSH METAR
Goshen Municipal Airport
Goshen, Indiana, USA
Current

37 mins ago

KGSH 291353Z AUTO 24028G48KT 10SM OVC038 11/03 A2957 RMK AO2 PK WND 23048/1347 SLP012 T01060033
Observed
Mar-29 @ 13:53 UTC
Wind
  • 240° at 28 KTS
  • Gusting to 48 KTS
Visibility
10 SM
Flight Rules
VFR
Cloud Levels
  • Overcast at 3,800' AGL
Temperature
11°C / 52°F
Dewpoint
C / 37°F
Humidity
58%
Altimeter
29.57" Hg
Pressure
1001.32 hPa
Previous

2 hours ago

KGSH 291253Z AUTO 23018G30KT 10SM OVC060 12/05 A2956 RMK AO2 PK WND 22032/1227 SLP009 T01220050
Observed
Mar-29 @ 12:53 UTC
Wind
  • 230° at 18 KTS
  • Gusting to 30 KTS
Visibility
10 SM
Flight Rules
VFR
Cloud Levels
  • Overcast at 6,000' AGL
Temperature
12°C / 54°F
Dewpoint
C / 41°F
Humidity
63%
Altimeter
29.56" Hg
Pressure
1001.02 hPa
Previous

3 hours ago

KGSH 291153Z AUTO 23015KT 10SM CLR 12/05 A2955 RMK AO2 PK WND 24027/1133 SLP006 60000 70028 T01220050 10178 20122 53015
Observed
Mar-29 @ 11:53 UTC
Wind
  • 230° at 15 KTS
Visibility
10 SM
Flight Rules
VFR
Cloud Levels
  • Clear skies
Temperature
12°C / 54°F
Dewpoint
C / 41°F
Humidity
63%
Altimeter
29.55" Hg
Pressure
1000.72 hPa
24 Hour Rain
0.28"